sensor_id;sensor_type;location;lat;lon;timestamp;pressure;altitude;pressure_sealevel;temperature;humidity
25759;BME280;13604;52.496;13.456;2023-02-16T00:00:42;101976.63;;;0.01;100.00
25759;BME280;13604;52.496;13.456;2023-02-16T00:03:14;101968.78;;;-0.01;100.00
25759;BME280;13604;52.496;13.456;2023-02-16T00:05:40;101966.16;;;-0.09;100.00
25759;BME280;13604;52.496;13.456;2023-02-16T00:08:05;101976.22;;;-0.11;100.00
25759;BME280;13604;52.496;13.456;2023-02-16T00:10:35;101960.28;;;-0.24;100.00
25759;BME280;13604;52.496;13.456;2023-02-16T00:13:01;101977.63;;;-0.06;100.00
25759;BME280;13604;52.496;13.456;2023-02-16T00:15:57;101975.06;;;-0.06;100.00
25759;BME280;13604;52.496;13.456;2023-02-16T00:18:22;101977.47;;;-0.07;100.00
25759;BME280;13604;52.496;13.456;2023-02-16T00:20:48;101984.41;;;-0.06;100.00
25759;BME280;13604;52.496;13.456;2023-02-16T00:23:14;101958.81;;;-0.22;100.00
25759;BME280;13604;52.496;13.456;2023-02-16T00:25:39;101975.00;;;-0.14;100.00
25759;BME280;13604;52.496;13.456;2023-02-16T00:28:09;101977.22;;;-0.17;100.00
25759;BME280;13604;52.496;13.456;2023-02-16T00:30:37;101978.44;;;-0.14;100.00
25759;BME280;13604;52.496;13.456;2023-02-16T00:33:12;101955.19;;;-0.24;100.00
25759;BME280;13604;52.496;13.456;2023-02-16T00:35:38;101895.38;;;-0.57;100.00
25759;BME280;13604;52.496;13.456;2023-02-16T00:38:03;101950.44;;;-0.28;100.00
25759;BME280;13604;52.496;13.456;2023-02-16T00:40:28;101984.81;;;-0.10;100.00
25759;BME280;13604;52.496;13.456;2023-02-16T00:42:54;101974.72;;;-0.09;100.00
25759;BME280;13604;52.496;13.456;2023-02-16T00:45:19;101971.66;;;-0.13;100.00
25759;BME280;13604;52.496;13.456;2023-02-16T00:47:47;101974.22;;;-0.13;100.00
25759;BME280;13604;52.496;13.456;2023-02-16T00:50:23;101985.91;;;-0.08;100.00
25759;BME280;13604;52.496;13.456;2023-02-16T00:52:50;101966.09;;;-0.18;100.00
25759;BME280;13604;52.496;13.456;2023-02-16T00:55:21;101974.56;;;-0.10;100.00
25759;BME280;13604;52.496;13.456;2023-02-16T01:00:21;101947.72;;;-0.30;100.00
25759;BME280;13604;52.496;13.456;2023-02-16T01:02:48;101976.50;;;-0.16;100.00
25759;BME280;13604;52.496;13.456;2023-02-16T01:05:15;101972.44;;;-0.14;100.00
25759;BME280;13604;52.496;13.456;2023-02-16T01:07:41;101977.72;;;-0.13;100.00
25759;BME280;13604;52.496;13.456;2023-02-16T01:10:25;101968.94;;;-0.15;100.00
25759;BME280;13604;52.496;13.456;2023-02-16T01:13:10;101972.09;;;-0.17;100.00
25759;BME280;13604;52.496;13.456;2023-02-16T01:15:36;101963.03;;;-0.23;100.00
25759;BME280;13604;52.496;13.456;2023-02-16T01:18:02;101971.50;;;-0.15;100.00
25759;BME280;13604;52.496;13.456;2023-02-16T01:20:28;101959.41;;;-0.25;100.00
25759;BME280;13604;52.496;13.456;2023-02-16T01:22:53;101976.16;;;-0.20;100.00
25759;BME280;13604;52.496;13.456;2023-02-16T01:25:19;101962.75;;;-0.17;100.00
25759;BME280;13604;52.496;13.456;2023-02-16T01:27:44;101973.44;;;-0.21;100.00
25759;BME280;13604;52.496;13.456;2023-02-16T01:30:17;101971.59;;;-0.22;100.00
25759;BME280;13604;52.496;13.456;2023-02-16T01:32:43;101946.16;;;-0.52;100.00
25759;BME280;13604;52.496;13.456;2023-02-16T01:35:13;101966.63;;;-0.37;100.00
25759;BME280;13604;52.496;13.456;2023-02-16T01:37:38;101956.38;;;-0.37;100.00
25759;BME280;13604;52.496;13.456;2023-02-16T01:40:04;101943.69;;;-0.44;100.00
25759;BME280;13604;52.496;13.456;2023-02-16T01:42:52;101934.28;;;-0.52;100.00
25759;BME280;13604;52.496;13.456;2023-02-16T01:45:31;101927.00;;;-0.56;100.00
25759;BME280;13604;52.496;13.456;2023-02-16T01:48:02;101951.53;;;-0.42;100.00
25759;BME280;13604;52.496;13.456;2023-02-16T01:50:42;101943.78;;;-0.51;100.00
25759;BME280;13604;52.496;13.456;2023-02-16T01:53:17;101953.94;;;-0.44;100.00
25759;BME280;13604;52.496;13.456;2023-02-16T01:55:47;101951.47;;;-0.51;100.00
25759;BME280;13604;52.496;13.456;2023-02-16T02:03:24;101953.69;;;-0.54;100.00
25759;BME280;13604;52.496;13.456;2023-02-16T02:06:11;101955.31;;;-0.54;100.00
25759;BME280;13604;52.496;13.456;2023-02-16T02:08:42;101945.84;;;-0.56;100.00
25759;BME280;13604;52.496;13.456;2023-02-16T02:11:33;101948.44;;;-0.63;100.00
25759;BME280;13604;52.496;13.456;2023-02-16T02:14:11;101921.94;;;-0.79;100.00
25759;BME280;13604;52.496;13.456;2023-02-16T02:16:37;101937.91;;;-0.66;100.00
25759;BME280;13604;52.496;13.456;2023-02-16T02:19:03;101943.75;;;-0.67;100.00
25759;BME280;13604;52.496;13.456;2023-02-16T02:28:00;101909.56;;;-0.83;100.00
25759;BME280;13604;52.496;13.456;2023-02-16T02:30:40;101902.13;;;-0.89;100.00
25759;BME280;13604;52.496;13.456;2023-02-16T02:33:32;101944.31;;;-0.69;100.00
25759;BME280;13604;52.496;13.456;2023-02-16T02:36:23;101935.22;;;-0.75;100.00
25759;BME280;13604;52.496;13.456;2023-02-16T02:39:18;101939.66;;;-0.81;100.00
25759;BME280;13604;52.496;13.456;2023-02-16T02:41:54;101940.94;;;-0.77;100.00
25759;BME280;13604;52.496;13.456;2023-02-16T02:44:49;101929.13;;;-0.84;100.00
25759;BME280;13604;52.496;13.456;2023-02-16T02:47:16;101928.28;;;-0.91;100.00
25759;BME280;13604;52.496;13.456;2023-02-16T02:49:52;101908.28;;;-1.03;100.00
25759;BME280;13604;52.496;13.456;2023-02-16T02:52:19;101926.28;;;-0.94;100.00
25759;BME280;13604;52.496;13.456;2023-02-16T02:54:45;101899.03;;;-1.09;100.00
25759;BME280;13604;52.496;13.456;2023-02-16T02:57:44;101919.88;;;-0.90;100.00
25759;BME280;13604;52.496;13.456;2023-02-16T03:00:39;101914.97;;;-0.96;100.00
25759;BME280;13604;52.496;13.456;2023-02-16T03:03:09;101912.00;;;-1.08;100.00
25759;BME280;13604;52.496;13.456;2023-02-16T03:05:37;101914.31;;;-1.02;100.00
25759;BME280;13604;52.496;13.456;2023-02-16T03:08:10;101898.34;;;-1.16;100.00
25759;BME280;13604;52.496;13.456;2023-02-16T03:10:49;101912.69;;;-1.02;100.00
25759;BME280;13604;52.496;13.456;2023-02-16T03:13:40;101916.84;;;-1.02;100.00
25759;BME280;13604;52.496;13.456;2023-02-16T03:16:11;101921.41;;;-1.00;100.00
25759;BME280;13604;52.496;13.456;2023-02-16T03:18:40;101920.81;;;-0.97;100.00
25759;BME280;13604;52.496;13.456;2023-02-16T03:21:26;101914.81;;;-0.98;100.00
25759;BME280;13604;52.496;13.456;2023-02-16T03:24:14;101924.13;;;-0.98;100.00
25759;BME280;13604;52.496;13.456;2023-02-16T03:27:00;101908.75;;;-1.14;100.00
25759;BME280;13604;52.496;13.456;2023-02-16T03:29:46;101896.59;;;-1.24;100.00
25759;BME280;13604;52.496;13.456;2023-02-16T03:32:13;101918.06;;;-1.15;100.00
25759;BME280;13604;52.496;13.456;2023-02-16T03:34:39;101916.50;;;-1.21;100.00
25759;BME280;13604;52.496;13.456;2023-02-16T03:37:05;101916.66;;;-1.20;100.00
25759;BME280;13604;52.496;13.456;2023-02-16T03:39:31;101900.47;;;-1.27;100.00
25759;BME280;13604;52.496;13.456;2023-02-16T03:42:18;101917.97;;;-1.23;100.00
25759;BME280;13604;52.496;13.456;2023-02-16T03:44:43;101919.09;;;-1.28;100.00
25759;BME280;13604;52.496;13.456;2023-02-16T03:47:09;101922.56;;;-1.28;100.00
25759;BME280;13604;52.496;13.456;2023-02-16T03:49:35;101918.19;;;-1.29;100.00
25759;BME280;13604;52.496;13.456;2023-02-16T03:52:00;101886.38;;;-1.47;100.00
25759;BME280;13604;52.496;13.456;2023-02-16T03:54:25;101896.72;;;-1.38;100.00
25759;BME280;13604;52.496;13.456;2023-02-16T03:56:50;101913.88;;;-1.37;100.00
25759;BME280;13604;52.496;13.456;2023-02-16T03:59:16;101899.50;;;-1.44;100.00
25759;BME280;13604;52.496;13.456;2023-02-16T04:01:41;101875.00;;;-1.58;100.00
25759;BME280;13604;52.496;13.456;2023-02-16T04:04:06;101910.25;;;-1.39;100.00
25759;BME280;13604;52.496;13.456;2023-02-16T04:06:32;101895.13;;;-1.45;100.00
25759;BME280;13604;52.496;13.456;2023-02-16T04:08:57;101885.69;;;-1.53;100.00
25759;BME280;13604;52.496;13.456;2023-02-16T04:11:22;101882.25;;;-1.54;100.00
25759;BME280;13604;52.496;13.456;2023-02-16T04:14:06;101886.72;;;-1.44;100.00
25759;BME280;13604;52.496;13.456;2023-02-16T04:16:32;101909.56;;;-1.22;100.00
25759;BME280;13604;52.496;13.456;2023-02-16T04:18:57;101913.19;;;-1.20;100.00
25759;BME280;13604;52.496;13.456;2023-02-16T04:21:22;101903.56;;;-1.30;100.00
25759;BME280;13604;52.496;13.456;2023-02-16T04:23:47;101894.63;;;-1.26;100.00
25759;BME280;13604;52.496;13.456;2023-02-16T04:26:13;101898.78;;;-1.20;100.00
25759;BME280;13604;52.496;13.456;2023-02-16T04:28:38;101897.91;;;-1.27;100.00
25759;BME280;13604;52.496;13.456;2023-02-16T04:31:03;101904.41;;;-1.15;100.00
25759;BME280;13604;52.496;13.456;2023-02-16T04:33:29;101905.63;;;-1.12;100.00
25759;BME280;13604;52.496;13.456;2023-02-16T04:35:54;101900.69;;;-1.10;100.00
25759;BME280;13604;52.496;13.456;2023-02-16T04:38:19;101884.41;;;-1.26;100.00
25759;BME280;13604;52.496;13.456;2023-02-16T04:40:45;101902.69;;;-0.91;100.00
25759;BME280;13604;52.496;13.456;2023-02-16T04:43:10;101912.69;;;-0.86;100.00
25759;BME280;13604;52.496;13.456;2023-02-16T04:45:35;101916.00;;;-0.87;100.00
25759;BME280;13604;52.496;13.456;2023-02-16T04:48:00;101911.28;;;-0.91;100.00
25759;BME280;13604;52.496;13.456;2023-02-16T04:50:26;101905.44;;;-0.90;100.00
25759;BME280;13604;52.496;13.456;2023-02-16T04:52:51;101908.38;;;-0.94;100.00
25759;BME280;13604;52.496;13.456;2023-02-16T04:55:16;101880.41;;;-1.08;100.00
25759;BME280;13604;52.496;13.456;2023-02-16T04:57:42;101906.63;;;-1.02;100.00
25759;BME280;13604;52.496;13.456;2023-02-16T05:00:08;101877.72;;;-1.17;100.00
25759;BME280;13604;52.496;13.456;2023-02-16T05:02:35;101872.69;;;-1.24;100.00
25759;BME280;13604;52.496;13.456;2023-02-16T05:05:01;101900.63;;;-1.03;100.00
25759;BME280;13604;52.496;13.456;2023-02-16T05:07:26;101879.94;;;-1.20;100.00
25759;BME280;13604;52.496;13.456;2023-02-16T05:09:51;101902.66;;;-1.07;100.00
25759;BME280;13604;52.496;13.456;2023-02-16T05:12:16;101893.94;;;-1.09;100.00
25759;BME280;13604;52.496;13.456;2023-02-16T05:15:00;101898.13;;;-1.10;100.00
25759;BME280;13604;52.496;13.456;2023-02-16T05:17:26;101879.03;;;-1.21;100.00
25759;BME280;13604;52.496;13.456;2023-02-16T05:19:54;101893.19;;;-1.08;100.00
25759;BME280;13604;52.496;13.456;2023-02-16T05:22:20;101908.13;;;-1.04;100.00
25759;BME280;13604;52.496;13.456;2023-02-16T05:24:45;101906.78;;;-1.17;100.00
25759;BME280;13604;52.496;13.456;2023-02-16T05:27:17;101901.88;;;-1.22;100.00
25759;BME280;13604;52.496;13.456;2023-02-16T05:29:42;101921.88;;;-1.11;100.00
25759;BME280;13604;52.496;13.456;2023-02-16T05:32:07;101890.06;;;-1.29;100.00
25759;BME280;13604;52.496;13.456;2023-02-16T05:34:33;101919.88;;;-1.14;100.00
25759;BME280;13604;52.496;13.456;2023-02-16T05:36:58;101921.00;;;-1.19;100.00
25759;BME280;13604;52.496;13.456;2023-02-16T05:39:23;101891.13;;;-1.43;100.00
25759;BME280;13604;52.496;13.456;2023-02-16T05:41:49;101916.16;;;-1.24;100.00
25759;BME280;13604;52.496;13.456;2023-02-16T05:44:14;101900.19;;;-1.38;100.00
25759;BME280;13604;52.496;13.456;2023-02-16T05:46:40;101906.19;;;-1.37;100.00
25759;BME280;13604;52.496;13.456;2023-02-16T05:49:06;101901.63;;;-1.33;100.00
25759;BME280;13604;52.496;13.456;2023-02-16T05:51:32;101886.34;;;-1.40;100.00
25759;BME280;13604;52.496;13.456;2023-02-16T05:53:57;101897.06;;;-1.35;100.00
25759;BME280;13604;52.496;13.456;2023-02-16T05:56:23;101894.84;;;-1.32;100.00
25759;BME280;13604;52.496;13.456;2023-02-16T05:58:49;101909.91;;;-1.19;100.00
25759;BME280;13604;52.496;13.456;2023-02-16T06:01:16;101915.00;;;-1.19;100.00
25759;BME280;13604;52.496;13.456;2023-02-16T06:03:42;101919.06;;;-0.82;100.00
25759;BME280;13604;52.496;13.456;2023-02-16T06:06:07;101920.41;;;-0.54;100.00
25759;BME280;13604;52.496;13.456;2023-02-16T06:08:33;101935.50;;;-0.48;100.00
25759;BME280;13604;52.496;13.456;2023-02-16T06:10:59;101927.25;;;-0.62;100.00
25759;BME280;13604;52.496;13.456;2023-02-16T06:13:24;101919.53;;;-0.78;100.00
25759;BME280;13604;52.496;13.456;2023-02-16T06:15:52;101931.69;;;-0.84;100.00
25759;BME280;13604;52.496;13.456;2023-02-16T06:18:18;101924.81;;;-0.92;100.00
25759;BME280;13604;52.496;13.456;2023-02-16T06:20:43;101931.19;;;-0.88;100.00
25759;BME280;13604;52.496;13.456;2023-02-16T06:23:10;101928.53;;;-0.81;100.00
25759;BME280;13604;52.496;13.456;2023-02-16T06:25:36;101936.97;;;-0.82;100.00
25759;BME280;13604;52.496;13.456;2023-02-16T06:28:02;101934.63;;;-0.88;100.00
25759;BME280;13604;52.496;13.456;2023-02-16T06:30:27;101928.28;;;-0.91;100.00
25759;BME280;13604;52.496;13.456;2023-02-16T06:32:52;101923.56;;;-0.96;100.00
25759;BME280;13604;52.496;13.456;2023-02-16T06:35:17;101920.38;;;-1.09;100.00
25759;BME280;13604;52.496;13.456;2023-02-16T06:37:43;101908.56;;;-1.16;100.00
25759;BME280;13604;52.496;13.456;2023-02-16T06:40:09;101935.25;;;-0.98;100.00
25759;BME280;13604;52.496;13.456;2023-02-16T06:42:36;101928.56;;;-1.04;100.00
25759;BME280;13604;52.496;13.456;2023-02-16T06:45:02;101913.66;;;-1.08;100.00
25759;BME280;13604;52.496;13.456;2023-02-16T06:47:27;101928.56;;;-1.04;100.00
25759;BME280;13604;52.496;13.456;2023-02-16T06:49:52;101942.22;;;-0.97;100.00
25759;BME280;13604;52.496;13.456;2023-02-16T06:52:18;101942.13;;;-0.89;100.00
25759;BME280;13604;52.496;13.456;2023-02-16T06:54:43;101942.56;;;-0.78;100.00
25759;BME280;13604;52.496;13.456;2023-02-16T06:57:08;101943.41;;;-0.70;100.00
25759;BME280;13604;52.496;13.456;2023-02-16T06:59:34;101950.69;;;-0.66;100.00
25759;BME280;13604;52.496;13.456;2023-02-16T07:01:59;101943.84;;;-0.58;100.00
25759;BME280;13604;52.496;13.456;2023-02-16T07:04:24;101928.75;;;-0.64;100.00
25759;BME280;13604;52.496;13.456;2023-02-16T07:06:49;101933.84;;;-0.32;100.00
25759;BME280;13604;52.496;13.456;2023-02-16T07:09:15;101945.81;;;-0.08;100.00
25759;BME280;13604;52.496;13.456;2023-02-16T07:11:40;101937.03;;;0.06;100.00
25759;BME280;13604;52.496;13.456;2023-02-16T07:14:05;101934.44;;;0.22;100.00
25759;BME280;13604;52.496;13.456;2023-02-16T07:16:31;101943.34;;;0.42;100.00
25759;BME280;13604;52.496;13.456;2023-02-16T07:18:56;101943.28;;;0.58;100.00
25759;BME280;13604;52.496;13.456;2023-02-16T07:21:21;101938.53;;;0.69;100.00
25759;BME280;13604;52.496;13.456;2023-02-16T07:23:47;101930.78;;;0.94;100.00
25759;BME280;13604;52.496;13.456;2023-02-16T07:26:12;101910.03;;;1.17;100.00
25759;BME280;13604;52.496;13.456;2023-02-16T07:28:37;101931.22;;;1.50;100.00
25759;BME280;13604;52.496;13.456;2023-02-16T07:31:11;101940.97;;;1.70;100.00
25759;BME280;13604;52.496;13.456;2023-02-16T07:33:37;101921.00;;;1.58;100.00
25759;BME280;13604;52.496;13.456;2023-02-16T07:36:03;101934.31;;;1.89;100.00
25759;BME280;13604;52.496;13.456;2023-02-16T07:38:28;101931.59;;;1.96;100.00
25759;BME280;13604;52.496;13.456;2023-02-16T07:40:55;101913.16;;;1.92;100.00
25759;BME280;13604;52.496;13.456;2023-02-16T07:43:20;101871.56;;;1.26;100.00
25759;BME280;13604;52.496;13.456;2023-02-16T07:45:46;101928.09;;;1.61;100.00
25759;BME280;13604;52.496;13.456;2023-02-16T07:48:11;101926.13;;;1.67;100.00
25759;BME280;13604;52.496;13.456;2023-02-16T07:50:37;101928.03;;;1.35;100.00
25759;BME280;13604;52.496;13.456;2023-02-16T07:53:03;101919.16;;;1.49;100.00
25759;BME280;13604;52.496;13.456;2023-02-16T07:55:28;101903.75;;;1.49;100.00
25759;BME280;13604;52.496;13.456;2023-02-16T07:57:54;101927.66;;;1.56;100.00
25759;BME280;13604;52.496;13.456;2023-02-16T08:00:22;101934.31;;;1.72;100.00
25759;BME280;13604;52.496;13.456;2023-02-16T08:02:48;101915.56;;;1.55;100.00
25759;BME280;13604;52.496;13.456;2023-02-16T08:05:13;101931.59;;;1.96;100.00
25759;BME280;13604;52.496;13.456;2023-02-16T08:07:38;101936.13;;;2.16;100.00
25759;BME280;13604;52.496;13.456;2023-02-16T08:10:05;101937.91;;;2.26;100.00
25759;BME280;13604;52.496;13.456;2023-02-16T08:12:31;101932.44;;;2.49;100.00
25759;BME280;13604;52.496;13.456;2023-02-16T08:14:56;101929.19;;;2.78;100.00
25759;BME280;13604;52.496;13.456;2023-02-16T08:17:21;101938.53;;;2.86;100.00
25759;BME280;13604;52.496;13.456;2023-02-16T08:19:47;101933.28;;;3.12;100.00
25759;BME280;13604;52.496;13.456;2023-02-16T08:22:12;101923.53;;;3.19;100.00
25759;BME280;13604;52.496;13.456;2023-02-16T08:24:37;101927.56;;;3.34;100.00
25759;BME280;13604;52.496;13.456;2023-02-16T08:27:04;101926.78;;;3.35;100.00
25759;BME280;13604;52.496;13.456;2023-02-16T08:29:29;101949.22;;;3.55;100.00
25759;BME280;13604;52.496;13.456;2023-02-16T08:31:55;101954.06;;;3.80;100.00
25759;BME280;13604;52.496;13.456;2023-02-16T08:34:21;101928.81;;;3.95;100.00
25759;BME280;13604;52.496;13.456;2023-02-16T08:36:51;101937.97;;;4.39;96.62
25759;BME280;13604;52.496;13.456;2023-02-16T08:39:19;101944.13;;;5.00;98.98
25759;BME280;13604;52.496;13.456;2023-02-16T08:41:46;101939.09;;;6.15;85.92
25759;BME280;13604;52.496;13.456;2023-02-16T08:44:14;101936.16;;;7.41;79.80
25759;BME280;13604;52.496;13.456;2023-02-16T08:46:42;101927.03;;;7.92;74.24
25759;BME280;13604;52.496;13.456;2023-02-16T08:49:08;101930.56;;;7.59;69.78
25759;BME280;13604;52.496;13.456;2023-02-16T08:51:36;101928.47;;;7.65;67.88
25759;BME280;13604;52.496;13.456;2023-02-16T08:54:04;101922.69;;;7.57;67.53
25759;BME280;13604;52.496;13.456;2023-02-16T08:56:32;101912.69;;;8.09;66.37
25759;BME280;13604;52.496;13.456;2023-02-16T08:58:58;101901.84;;;8.38;63.95
25759;BME280;13604;52.496;13.456;2023-02-16T09:01:24;101900.56;;;8.80;61.66
25759;BME280;13604;52.496;13.456;2023-02-16T09:03:50;101902.47;;;8.95;60.71
25759;BME280;13604;52.496;13.456;2023-02-16T09:06:18;101905.16;;;8.96;60.38
25759;BME280;13604;52.496;13.456;2023-02-16T09:08:54;101911.44;;;9.50;59.35
25759;BME280;13604;52.496;13.456;2023-02-16T09:11:21;101901.84;;;10.01;57.66
25759;BME280;13604;52.496;13.456;2023-02-16T09:13:47;101899.03;;;10.65;56.10
25759;BME280;13604;52.496;13.456;2023-02-16T09:16:15;101906.56;;;11.45;53.00
25759;BME280;13604;52.496;13.456;2023-02-16T09:18:42;101905.59;;;11.88;50.80
25759;BME280;13604;52.496;13.456;2023-02-16T09:21:16;101893.22;;;12.61;50.14
25759;BME280;13604;52.496;13.456;2023-02-16T09:23:44;101894.25;;;12.48;48.91
25759;BME280;13604;52.496;13.456;2023-02-16T09:26:14;101914.22;;;13.96;47.19
25759;BME280;13604;52.496;13.456;2023-02-16T09:28:41;101881.84;;;14.85;43.40
25759;BME280;13604;52.496;13.456;2023-02-16T09:31:11;101906.44;;;15.67;42.79
25759;BME280;13604;52.496;13.456;2023-02-16T09:33:37;101910.59;;;16.03;41.77
25759;BME280;13604;52.496;13.456;2023-02-16T09:36:05;101903.13;;;17.02;39.28
25759;BME280;13604;52.496;13.456;2023-02-16T09:38:31;101902.78;;;17.41;37.97
25759;BME280;13604;52.496;13.456;2023-02-16T09:40:57;101867.00;;;17.48;36.98
25759;BME280;13604;52.496;13.456;2023-02-16T09:43:59;101901.00;;;18.17;35.76
25759;BME280;13604;52.496;13.456;2023-02-16T09:46:29;101901.75;;;17.62;36.62
25759;BME280;13604;52.496;13.456;2023-02-16T09:48:55;101910.47;;;18.67;35.47
25759;BME280;13604;52.496;13.456;2023-02-16T09:51:27;101889.28;;;19.26;34.18
25759;BME280;13604;52.496;13.456;2023-02-16T09:54:01;101907.66;;;19.53;33.71
25759;BME280;13604;52.496;13.456;2023-02-16T09:56:34;101892.94;;;20.34;32.49
25759;BME280;13604;52.496;13.456;2023-02-16T10:05:11;101889.19;;;21.02;30.76
25759;BME280;13604;52.496;13.456;2023-02-16T10:07:52;101878.53;;;20.99;31.44
25759;BME280;13604;52.496;13.456;2023-02-16T10:10:32;101887.28;;;20.96;31.27
25759;BME280;13604;52.496;13.456;2023-02-16T10:13:03;101887.88;;;21.26;30.67
25759;BME280;13604;52.496;13.456;2023-02-16T10:15:32;101878.81;;;21.14;30.55
25759;BME280;13604;52.496;13.456;2023-02-16T10:18:06;101892.09;;;22.15;29.82
25759;BME280;13604;52.496;13.456;2023-02-16T10:20:36;101862.91;;;22.15;29.07
25759;BME280;13604;52.496;13.456;2023-02-16T10:23:39;101892.03;;;22.09;29.17
25759;BME280;13604;52.496;13.456;2023-02-16T10:26:29;101889.81;;;22.38;28.92
25759;BME280;13604;52.496;13.456;2023-02-16T10:28:58;101874.69;;;22.31;28.75
25759;BME280;13604;52.496;13.456;2023-02-16T10:34:16;101872.81;;;21.25;29.93
25759;BME280;13604;52.496;13.456;2023-02-16T10:42:45;101871.72;;;20.69;30.74
25759;BME280;13604;52.496;13.456;2023-02-16T10:45:23;101875.16;;;19.24;32.10
25759;BME280;13604;52.496;13.456;2023-02-16T10:47:50;101858.25;;;18.28;33.65
25759;BME280;13604;52.496;13.456;2023-02-16T10:50:22;101871.28;;;17.44;35.15
25759;BME280;13604;52.496;13.456;2023-02-16T10:52:51;101864.56;;;18.90;33.51
25759;BME280;13604;52.496;13.456;2023-02-16T10:55:18;101866.75;;;19.72;31.97
25759;BME280;13604;52.496;13.456;2023-02-16T10:57:49;101860.06;;;20.21;31.25
25759;BME280;13604;52.496;13.456;2023-02-16T11:00:22;101857.47;;;20.25;31.36
25759;BME280;13604;52.496;13.456;2023-02-16T11:02:51;101841.78;;;19.94;31.09
25759;BME280;13604;52.496;13.456;2023-02-16T11:07:53;101837.44;;;19.63;31.72
25759;BME280;13604;52.496;13.456;2023-02-16T11:10:32;101858.19;;;19.81;31.60
25759;BME280;13604;52.496;13.456;2023-02-16T11:12:58;101855.91;;;19.28;32.79
25759;BME280;13604;52.496;13.456;2023-02-16T11:15:25;101850.59;;;19.95;31.64
25759;BME280;13604;52.496;13.456;2023-02-16T11:17:54;101854.34;;;19.70;31.78
25759;BME280;13604;52.496;13.456;2023-02-16T11:20:50;101849.75;;;19.96;31.13
25759;BME280;13604;52.496;13.456;2023-02-16T11:28:29;101859.22;;;17.01;35.76
25759;BME280;13604;52.496;13.456;2023-02-16T11:31:04;101845.16;;;16.54;35.82
25759;BME280;13604;52.496;13.456;2023-02-16T11:33:36;101848.00;;;16.15;36.55
25759;BME280;13604;52.496;13.456;2023-02-16T11:36:03;101835.91;;;17.62;35.35
25759;BME280;13604;52.496;13.456;2023-02-16T11:38:42;101825.25;;;18.71;33.29
25759;BME280;13604;52.496;13.456;2023-02-16T11:41:22;101829.25;;;19.19;32.48
25759;BME280;13604;52.496;13.456;2023-02-16T11:43:48;101813.78;;;19.67;31.63
25759;BME280;13604;52.496;13.456;2023-02-16T11:46:18;101824.69;;;19.80;31.77
25759;BME280;13604;52.496;13.456;2023-02-16T11:48:45;101825.78;;;20.67;30.65
25759;BME280;13604;52.496;13.456;2023-02-16T11:51:12;101826.09;;;19.67;31.62
25759;BME280;13604;52.496;13.456;2023-02-16T11:53:41;101824.53;;;19.74;31.82
25759;BME280;13604;52.496;13.456;2023-02-16T11:56:24;101820.16;;;20.52;31.39
25759;BME280;13604;52.496;13.456;2023-02-16T11:59:13;101819.56;;;21.57;29.86
25759;BME280;13604;52.496;13.456;2023-02-16T12:01:47;101816.06;;;22.80;28.24
25759;BME280;13604;52.496;13.456;2023-02-16T12:10:06;101800.50;;;24.26;26.19
25759;BME280;13604;52.496;13.456;2023-02-16T12:15:24;101808.00;;;25.40;25.26
25759;BME280;13604;52.496;13.456;2023-02-16T12:18:16;101801.47;;;24.47;25.19
25759;BME280;13604;52.496;13.456;2023-02-16T12:21:09;101799.72;;;24.42;25.37
25759;BME280;13604;52.496;13.456;2023-02-16T12:26:41;101790.16;;;25.00;26.30
25759;BME280;13604;52.496;13.456;2023-02-16T12:33:05;101793.75;;;25.99;24.93
25759;BME280;13604;52.496;13.456;2023-02-16T12:35:55;101786.59;;;24.92;24.31
25759;BME280;13604;52.496;13.456;2023-02-16T12:44:02;101782.81;;;23.14;27.14
25759;BME280;13604;52.496;13.456;2023-02-16T12:46:35;101780.28;;;24.67;25.41
25759;BME280;13604;52.496;13.456;2023-02-16T12:49:23;101764.34;;;24.76;24.92
25759;BME280;13604;52.496;13.456;2023-02-16T12:51:55;101780.13;;;24.36;25.43
25759;BME280;13604;52.496;13.456;2023-02-16T12:54:37;101772.03;;;24.14;25.97
25759;BME280;13604;52.496;13.456;2023-02-16T12:57:10;101784.09;;;22.74;27.29
25759;BME280;13604;52.496;13.456;2023-02-16T12:59:44;101784.84;;;21.44;28.42
25759;BME280;13604;52.496;13.456;2023-02-16T13:02:19;101761.97;;;20.53;29.44
25759;BME280;13604;52.496;13.456;2023-02-16T13:05:05;101767.75;;;19.58;31.44
25759;BME280;13604;52.496;13.456;2023-02-16T13:07:44;101763.53;;;20.02;31.06
25759;BME280;13604;52.496;13.456;2023-02-16T13:10:29;101763.28;;;21.21;29.58
25759;BME280;13604;52.496;13.456;2023-02-16T13:13:01;101761.88;;;21.42;29.02
25759;BME280;13604;52.496;13.456;2023-02-16T13:15:51;101760.66;;;22.37;27.89
25759;BME280;13604;52.496;13.456;2023-02-16T13:18:25;101756.25;;;23.21;27.91
25759;BME280;13604;52.496;13.456;2023-02-16T13:20:57;101754.75;;;21.94;27.94
25759;BME280;13604;52.496;13.456;2023-02-16T13:23:37;101753.81;;;23.45;26.97
25759;BME280;13604;52.496;13.456;2023-02-16T13:26:23;101755.94;;;22.88;27.05
25759;BME280;13604;52.496;13.456;2023-02-16T13:32:22;101756.69;;;22.75;27.15
25759;BME280;13604;52.496;13.456;2023-02-16T13:35:19;101735.31;;;23.56;26.64
25759;BME280;13604;52.496;13.456;2023-02-16T13:43:41;101742.97;;;26.16;23.88
25759;BME280;13604;52.496;13.456;2023-02-16T13:46:17;101747.25;;;26.65;23.40
25759;BME280;13604;52.496;13.456;2023-02-16T13:48:46;101733.19;;;26.20;23.63
25759;BME280;13604;52.496;13.456;2023-02-16T13:51:18;101743.94;;;26.00;23.45
25759;BME280;13604;52.496;13.456;2023-02-16T13:53:51;101751.09;;;25.67;24.42
25759;BME280;13604;52.496;13.456;2023-02-16T13:56:19;101750.16;;;25.86;24.38
25759;BME280;13604;52.496;13.456;2023-02-16T13:58:47;101752.84;;;25.77;24.25